sensor_id;sensor_type;location;lat;lon;timestamp;pressure;altitude;pressure_sealevel;temperature;humidity
72975;BME280;61166;54.228;37.632;2023-04-08T03:57:18;100257.63;;;9.02;nan
72975;BME280;61166;54.228;37.632;2023-04-08T03:59:44;100255.78;;;9.63;nan
72975;BME280;61166;54.228;37.632;2023-04-08T04:02:11;100258.69;;;9.83;nan
72975;BME280;61166;54.228;37.632;2023-04-08T04:04:38;100249.41;;;10.61;nan
72975;BME280;61166;54.228;37.632;2023-04-08T04:07:04;100252.63;;;11.20;nan
72975;BME280;61166;54.228;37.632;2023-04-08T04:09:30;100260.81;;;11.81;nan
72975;BME280;61166;54.228;37.632;2023-04-08T04:11:57;100253.94;;;12.21;nan
72975;BME280;61166;54.228;37.632;2023-04-08T04:14:23;100255.16;;;12.66;nan
72975;BME280;61166;54.228;37.632;2023-04-08T04:16:50;100254.13;;;12.67;nan
72975;BME280;61166;54.228;37.632;2023-04-08T04:19:16;100258.91;;;13.31;nan
72975;BME280;61166;54.228;37.632;2023-04-08T04:21:43;100254.16;;;13.93;nan
72975;BME280;61166;54.228;37.632;2023-04-08T04:24:09;100262.16;;;14.50;nan
72975;BME280;61166;54.228;37.632;2023-04-08T04:26:36;100265.50;;;14.19;nan
72975;BME280;61166;54.228;37.632;2023-04-08T04:29:02;100260.50;;;14.56;nan
72975;BME280;61166;54.228;37.632;2023-04-08T04:31:29;100262.59;;;14.41;nan
72975;BME280;61166;54.228;37.632;2023-04-08T04:33:56;100270.19;;;14.17;nan
72975;BME280;61166;54.228;37.632;2023-04-08T04:36:22;100254.03;;;15.65;nan
72975;BME280;61166;54.228;37.632;2023-04-08T04:38:49;100261.88;;;15.60;nan
72975;BME280;61166;54.228;37.632;2023-04-08T04:41:16;100255.91;;;16.56;nan
72975;BME280;61166;54.228;37.632;2023-04-08T04:43:43;100244.91;;;16.52;nan
72975;BME280;61166;54.228;37.632;2023-04-08T04:46:09;100253.41;;;16.91;nan
72975;BME280;61166;54.228;37.632;2023-04-08T04:48:36;100262.94;;;16.68;nan
72975;BME280;61166;54.228;37.632;2023-04-08T04:51:02;100257.16;;;17.13;nan
72975;BME280;61166;54.228;37.632;2023-04-08T04:53:30;100265.53;;;17.52;nan
72975;BME280;61166;54.228;37.632;2023-04-08T04:55:56;100259.84;;;18.18;nan
72975;BME280;61166;54.228;37.632;2023-04-08T04:58:23;100260.66;;;18.59;nan
72975;BME280;61166;54.228;37.632;2023-04-08T05:00:50;100259.00;;;19.14;nan
72975;BME280;61166;54.228;37.632;2023-04-08T05:03:16;100266.53;;;19.34;nan
72975;BME280;61166;54.228;37.632;2023-04-08T05:05:43;100266.19;;;20.20;nan
72975;BME280;61166;54.228;37.632;2023-04-08T05:08:09;100261.34;;;20.60;nan
72975;BME280;61166;54.228;37.632;2023-04-08T05:10:36;100259.72;;;21.13;nan
72975;BME280;61166;54.228;37.632;2023-04-08T05:13:02;100275.63;;;21.62;nan
72975;BME280;61166;54.228;37.632;2023-04-08T05:15:29;100273.69;;;22.47;nan
72975;BME280;61166;54.228;37.632;2023-04-08T05:17:55;100272.91;;;22.56;nan
72975;BME280;61166;54.228;37.632;2023-04-08T05:20:22;100266.59;;;23.03;nan
72975;BME280;61166;54.228;37.632;2023-04-08T05:22:48;100266.78;;;23.98;nan
72975;BME280;61166;54.228;37.632;2023-04-08T05:25:15;100268.13;;;23.95;nan
72975;BME280;61166;54.228;37.632;2023-04-08T05:27:41;100266.19;;;24.16;nan
72975;BME280;61166;54.228;37.632;2023-04-08T05:30:08;100267.50;;;24.29;nan
72975;BME280;61166;54.228;37.632;2023-04-08T05:32:35;100269.59;;;24.86;nan
72975;BME280;61166;54.228;37.632;2023-04-08T05:35:02;100263.81;;;25.08;nan
72975;BME280;61166;54.228;37.632;2023-04-08T05:37:29;100275.19;;;25.63;nan
72975;BME280;61166;54.228;37.632;2023-04-08T05:39:56;100272.22;;;25.93;nan
72975;BME280;61166;54.228;37.632;2023-04-08T05:42:22;100276.28;;;26.15;nan
72975;BME280;61166;54.228;37.632;2023-04-08T05:44:49;100282.06;;;26.27;nan
72975;BME280;61166;54.228;37.632;2023-04-08T05:47:15;100279.59;;;26.30;nan
72975;BME280;61166;54.228;37.632;2023-04-08T05:49:42;100274.56;;;26.24;nan
72975;BME280;61166;54.228;37.632;2023-04-08T05:52:08;100279.53;;;25.59;nan
72975;BME280;61166;54.228;37.632;2023-04-08T05:54:35;100276.16;;;26.49;nan
72975;BME280;61166;54.228;37.632;2023-04-08T05:57:01;100280.91;;;26.57;nan
72975;BME280;61166;54.228;37.632;2023-04-08T05:59:28;100279.84;;;25.86;nan
72975;BME280;61166;54.228;37.632;2023-04-08T06:01:54;100279.59;;;26.54;nan
72975;BME280;61166;54.228;37.632;2023-04-08T06:04:21;100284.31;;;26.44;nan
72975;BME280;61166;54.228;37.632;2023-04-08T06:06:48;100281.78;;;25.81;nan
72975;BME280;61166;54.228;37.632;2023-04-08T06:09:14;100274.53;;;25.18;nan
72975;BME280;61166;54.228;37.632;2023-04-08T06:11:41;100276.38;;;26.28;nan
72975;BME280;61166;54.228;37.632;2023-04-08T06:14:07;100281.41;;;26.40;nan
72975;BME280;61166;54.228;37.632;2023-04-08T06:16:34;100271.06;;;26.47;nan
72975;BME280;61166;54.228;37.632;2023-04-08T06:19:01;100270.03;;;25.72;nan
72975;BME280;61166;54.228;37.632;2023-04-08T06:21:27;100272.59;;;26.06;nan
72975;BME280;61166;54.228;37.632;2023-04-08T06:23:54;100270.03;;;26.62;nan
72975;BME280;61166;54.228;37.632;2023-04-08T06:26:20;100262.25;;;27.63;nan
72975;BME280;61166;54.228;37.632;2023-04-08T06:28:47;100261.66;;;27.34;nan
72975;BME280;61166;54.228;37.632;2023-04-08T06:31:14;100267.41;;;26.94;nan
72975;BME280;61166;54.228;37.632;2023-04-08T06:33:41;100262.00;;;27.13;nan
72975;BME280;61166;54.228;37.632;2023-04-08T06:36:07;100256.38;;;27.42;nan
72975;BME280;61166;54.228;37.632;2023-04-08T06:38:34;100263.00;;;28.23;nan
72975;BME280;61166;54.228;37.632;2023-04-08T06:41:05;100263.16;;;27.40;nan
72975;BME280;61166;54.228;37.632;2023-04-08T06:43:32;100262.75;;;27.33;nan
72975;BME280;61166;54.228;37.632;2023-04-08T06:45:59;100270.81;;;26.62;nan
72975;BME280;61166;54.228;37.632;2023-04-08T06:48:26;100262.28;;;25.65;nan
72975;BME280;61166;54.228;37.632;2023-04-08T06:50:57;100267.25;;;25.48;nan
72975;BME280;61166;54.228;37.632;2023-04-08T06:53:24;100267.13;;;25.63;nan
72975;BME280;61166;54.228;37.632;2023-04-08T06:55:51;100272.81;;;24.44;nan
72975;BME280;61166;54.228;37.632;2023-04-08T06:58:18;100270.84;;;23.80;nan
72975;BME280;61166;54.228;37.632;2023-04-08T07:00:44;100266.06;;;23.52;nan
72975;BME280;61166;54.228;37.632;2023-04-08T07:03:11;100260.00;;;24.21;nan
72975;BME280;61166;54.228;37.632;2023-04-08T07:05:38;100272.50;;;23.41;nan
72975;BME280;61166;54.228;37.632;2023-04-08T07:08:05;100281.06;;;23.83;nan
72975;BME280;61166;54.228;37.632;2023-04-08T07:10:33;100264.19;;;24.47;nan
72975;BME280;61166;54.228;37.632;2023-04-08T07:12:59;100257.72;;;24.97;nan
72975;BME280;61166;54.228;37.632;2023-04-08T07:15:26;100264.00;;;25.51;nan
72975;BME280;61166;54.228;37.632;2023-04-08T07:17:52;100260.09;;;25.67;nan
72975;BME280;61166;54.228;37.632;2023-04-08T07:20:19;100262.09;;;24.83;nan
72975;BME280;61166;54.228;37.632;2023-04-08T07:22:45;100270.00;;;25.43;nan
72975;BME280;61166;54.228;37.632;2023-04-08T07:25:12;100259.69;;;25.50;nan
72975;BME280;61166;54.228;37.632;2023-04-08T07:27:38;100269.88;;;25.29;nan
72975;BME280;61166;54.228;37.632;2023-04-08T07:30:05;100253.31;;;25.12;nan
72975;BME280;61166;54.228;37.632;2023-04-08T07:32:32;100255.69;;;25.18;nan
72975;BME280;61166;54.228;37.632;2023-04-08T07:35:00;100255.72;;;25.42;nan
72975;BME280;61166;54.228;37.632;2023-04-08T07:37:27;100257.41;;;25.38;nan
72975;BME280;61166;54.228;37.632;2023-04-08T07:39:53;100265.09;;;24.82;nan
72975;BME280;61166;54.228;37.632;2023-04-08T07:42:20;100252.09;;;25.28;nan
72975;BME280;61166;54.228;37.632;2023-04-08T07:44:47;100248.34;;;24.85;nan
72975;BME280;61166;54.228;37.632;2023-04-08T07:47:13;100251.72;;;25.40;nan
72975;BME280;61166;54.228;37.632;2023-04-08T07:49:40;100270.47;;;25.50;nan
72975;BME280;61166;54.228;37.632;2023-04-08T07:52:06;100252.78;;;25.73;nan
72975;BME280;61166;54.228;37.632;2023-04-08T07:54:33;100260.91;;;25.67;nan
72975;BME280;61166;54.228;37.632;2023-04-08T07:56:59;100256.50;;;26.00;nan
72975;BME280;61166;54.228;37.632;2023-04-08T07:59:27;100257.81;;;25.79;nan
72975;BME280;61166;54.228;37.632;2023-04-08T08:01:54;100258.66;;;25.17;nan
72975;BME280;61166;54.228;37.632;2023-04-08T08:04:21;100267.06;;;23.91;nan
72975;BME280;61166;54.228;37.632;2023-04-08T08:06:47;100262.69;;;24.16;nan
72975;BME280;61166;54.228;37.632;2023-04-08T08:09:14;100269.44;;;24.73;nan
72975;BME280;61166;54.228;37.632;2023-04-08T08:11:40;100259.38;;;24.44;nan
72975;BME280;61166;54.228;37.632;2023-04-08T08:14:07;100250.69;;;23.88;nan
72975;BME280;61166;54.228;37.632;2023-04-08T08:16:33;100251.16;;;24.15;nan
72975;BME280;61166;54.228;37.632;2023-04-08T08:19:00;100263.88;;;23.74;nan
72975;BME280;61166;54.228;37.632;2023-04-08T08:21:27;100256.66;;;23.44;nan
72975;BME280;61166;54.228;37.632;2023-04-08T08:23:53;100266.59;;;23.38;nan
72975;BME280;61166;54.228;37.632;2023-04-08T08:26:20;100260.25;;;24.24;nan
72975;BME280;61166;54.228;37.632;2023-04-08T08:28:47;100267.66;;;23.27;nan
72975;BME280;61166;54.228;37.632;2023-04-08T08:31:13;100257.38;;;23.95;nan
72975;BME280;61166;54.228;37.632;2023-04-08T08:33:40;100259.59;;;23.73;nan
72975;BME280;61166;54.228;37.632;2023-04-08T08:36:07;100260.00;;;24.21;nan
72975;BME280;61166;54.228;37.632;2023-04-08T08:38:33;100264.03;;;24.23;nan
72975;BME280;61166;54.228;37.632;2023-04-08T08:41:00;100267.94;;;24.51;nan
72975;BME280;61166;54.228;37.632;2023-04-08T08:43:27;100258.19;;;25.05;nan
72975;BME280;61166;54.228;37.632;2023-04-08T08:45:54;100251.97;;;24.70;nan
72975;BME280;61166;54.228;37.632;2023-04-08T08:48:21;100246.50;;;24.31;nan
72975;BME280;61166;54.228;37.632;2023-04-08T08:50:47;100247.81;;;23.23;nan
72975;BME280;61166;54.228;37.632;2023-04-08T08:53:14;100246.22;;;23.07;nan
72975;BME280;61166;54.228;37.632;2023-04-08T08:55:41;100238.13;;;23.12;nan
72975;BME280;61166;54.228;37.632;2023-04-08T08:58:10;100247.03;;;23.08;nan
72975;BME280;61166;54.228;37.632;2023-04-08T09:00:41;100243.53;;;23.07;nan
72975;BME280;61166;54.228;37.632;2023-04-08T09:03:21;100259.06;;;23.46;nan
72975;BME280;61166;54.228;37.632;2023-04-08T09:06:00;100247.81;;;23.23;nan
72975;BME280;61166;54.228;37.632;2023-04-08T09:08:32;100235.59;;;24.61;nan
72975;BME280;61166;54.228;37.632;2023-04-08T09:11:14;100238.06;;;24.92;nan
72975;BME280;61166;54.228;37.632;2023-04-08T09:13:42;100241.91;;;23.62;nan
72975;BME280;61166;54.228;37.632;2023-04-08T09:16:13;100247.53;;;22.89;nan
72975;BME280;61166;54.228;37.632;2023-04-08T09:18:40;100233.59;;;23.02;nan
72975;BME280;61166;54.228;37.632;2023-04-08T09:21:06;100235.31;;;24.09;nan
72975;BME280;61166;54.228;37.632;2023-04-08T09:23:44;100227.47;;;24.72;nan
72975;BME280;61166;54.228;37.632;2023-04-08T09:26:15;100234.84;;;23.81;nan
72975;BME280;61166;54.228;37.632;2023-04-08T09:28:43;100237.03;;;23.69;nan
72975;BME280;61166;54.228;37.632;2023-04-08T09:31:24;100231.06;;;23.92;nan
72975;BME280;61166;54.228;37.632;2023-04-08T09:33:53;100234.31;;;23.84;nan
72975;BME280;61166;54.228;37.632;2023-04-08T09:36:20;100247.81;;;22.93;nan
72975;BME280;61166;54.228;37.632;2023-04-08T09:38:46;100253.66;;;22.02;nan
72975;BME280;61166;54.228;37.632;2023-04-08T09:41:17;100253.72;;;21.65;nan
72975;BME280;61166;54.228;37.632;2023-04-08T09:43:48;100254.97;;;21.20;nan
72975;BME280;61166;54.228;37.632;2023-04-08T09:46:17;100243.78;;;21.23;nan
72975;BME280;61166;54.228;37.632;2023-04-08T09:52:10;100248.84;;;21.57;nan
72975;BME280;61166;54.228;37.632;2023-04-08T09:54:41;100241.75;;;21.40;nan
72975;BME280;61166;54.228;37.632;2023-04-08T09:57:13;100245.78;;;21.11;nan
72975;BME280;61166;54.228;37.632;2023-04-08T09:59:56;100240.38;;;20.30;nan
72975;BME280;61166;54.228;37.632;2023-04-08T10:02:29;100235.38;;;19.73;nan
72975;BME280;61166;54.228;37.632;2023-04-08T10:04:58;100244.06;;;19.13;nan
72975;BME280;61166;54.228;37.632;2023-04-08T10:07:26;100242.38;;;18.51;nan
72975;BME280;61166;54.228;37.632;2023-04-08T10:09:53;100242.94;;;16.77;nan
72975;BME280;61166;54.228;37.632;2023-04-08T10:12:19;100248.41;;;15.79;nan
72975;BME280;61166;54.228;37.632;2023-04-08T10:15:21;100258.25;;;14.98;nan
72975;BME280;61166;54.228;37.632;2023-04-08T10:17:48;100254.81;;;14.52;nan
72975;BME280;61166;54.228;37.632;2023-04-08T10:23:08;100254.16;;;14.06;nan
72975;BME280;61166;54.228;37.632;2023-04-08T10:25:37;100260.53;;;13.65;nan
72975;BME280;61166;54.228;37.632;2023-04-08T10:30:43;100253.00;;;13.29;nan
72975;BME280;61166;54.228;37.632;2023-04-08T10:36:00;100253.03;;;13.16;nan
72975;BME280;61166;54.228;37.632;2023-04-08T10:38:33;100262.19;;;13.27;nan
72975;BME280;61166;54.228;37.632;2023-04-08T10:41:00;100253.44;;;13.26;nan
72975;BME280;61166;54.228;37.632;2023-04-08T10:43:31;100250.38;;;13.16;nan
72975;BME280;61166;54.228;37.632;2023-04-08T10:45:58;100265.16;;;13.04;nan
72975;BME280;61166;54.228;37.632;2023-04-08T10:48:25;100249.38;;;13.17;nan
72975;BME280;61166;54.228;37.632;2023-04-08T10:50:54;100247.97;;;13.21;nan
72975;BME280;61166;54.228;37.632;2023-04-08T10:53:33;100238.22;;;13.28;nan
72975;BME280;61166;54.228;37.632;2023-04-08T10:58:34;100237.38;;;13.21;nan
72975;BME280;61166;54.228;37.632;2023-04-08T11:01:05;100228.22;;;13.30;nan
72975;BME280;61166;54.228;37.632;2023-04-08T11:03:33;100240.25;;;13.26;nan
72975;BME280;61166;54.228;37.632;2023-04-08T11:06:00;100246.50;;;13.32;nan
72975;BME280;61166;54.228;37.632;2023-04-08T11:08:31;100230.66;;;13.38;nan
72975;BME280;61166;54.228;37.632;2023-04-08T11:10:58;100226.38;;;13.57;nan
72975;BME280;61166;54.228;37.632;2023-04-08T11:13:26;100241.63;;;13.75;nan
72975;BME280;61166;54.228;37.632;2023-04-08T11:15:53;100225.34;;;13.78;nan
72975;BME280;61166;54.228;37.632;2023-04-08T11:18:21;100236.28;;;13.88;nan
72975;BME280;61166;54.228;37.632;2023-04-08T11:20:52;100217.34;;;13.98;nan
72975;BME280;61166;54.228;37.632;2023-04-08T11:23:19;100234.50;;;13.82;nan
72975;BME280;61166;54.228;37.632;2023-04-08T11:25:46;100221.28;;;13.82;nan
72975;BME280;61166;54.228;37.632;2023-04-08T11:28:14;100221.66;;;13.85;nan
72975;BME280;61166;54.228;37.632;2023-04-08T11:30:40;100230.25;;;13.61;nan
72975;BME280;61166;54.228;37.632;2023-04-08T11:33:07;100226.59;;;13.55;nan
72975;BME280;61166;54.228;37.632;2023-04-08T11:35:44;100223.34;;;13.40;nan
72975;BME280;61166;54.228;37.632;2023-04-08T11:38:10;100219.50;;;13.16;nan
72975;BME280;61166;54.228;37.632;2023-04-08T11:40:37;100210.53;;;13.57;nan
72975;BME280;61166;54.228;37.632;2023-04-08T11:43:11;100202.78;;;13.69;nan
72975;BME280;61166;54.228;37.632;2023-04-08T11:45:38;100196.25;;;13.78;nan
72975;BME280;61166;54.228;37.632;2023-04-08T11:48:13;100210.00;;;14.06;nan
72975;BME280;61166;54.228;37.632;2023-04-08T11:50:40;100202.91;;;13.87;nan
72975;BME280;61166;54.228;37.632;2023-04-08T11:55:43;100200.31;;;13.80;nan
72975;BME280;61166;54.228;37.632;2023-04-08T11:58:10;100189.94;;;13.79;nan
72975;BME280;61166;54.228;37.632;2023-04-08T12:00:37;100191.94;;;13.90;nan
72975;BME280;61166;54.228;37.632;2023-04-08T12:03:03;100186.63;;;13.97;nan
72975;BME280;61166;54.228;37.632;2023-04-08T12:05:31;100187.44;;;13.91;nan
72975;BME280;61166;54.228;37.632;2023-04-08T12:07:57;100184.56;;;13.99;nan
72975;BME280;61166;54.228;37.632;2023-04-08T12:10:24;100189.03;;;14.05;nan
72975;BME280;61166;54.228;37.632;2023-04-08T12:12:50;100186.56;;;14.16;nan
72975;BME280;61166;54.228;37.632;2023-04-08T12:15:17;100178.56;;;14.30;nan
72975;BME280;61166;54.228;37.632;2023-04-08T12:17:44;100176.31;;;14.71;nan
72975;BME280;61166;54.228;37.632;2023-04-08T12:20:11;100182.88;;;14.94;nan
72975;BME280;61166;54.228;37.632;2023-04-08T12:22:38;100174.81;;;15.07;nan
72975;BME280;61166;54.228;37.632;2023-04-08T12:25:05;100174.22;;;15.05;nan
72975;BME280;61166;54.228;37.632;2023-04-08T12:27:31;100188.44;;;14.85;nan
72975;BME280;61166;54.228;37.632;2023-04-08T12:29:59;100175.88;;;14.36;nan
72975;BME280;61166;54.228;37.632;2023-04-08T12:32:25;100173.94;;;14.18;nan
72975;BME280;61166;54.228;37.632;2023-04-08T12:34:52;100175.00;;;14.04;nan
72975;BME280;61166;54.228;37.632;2023-04-08T12:37:19;100175.22;;;13.96;nan
72975;BME280;61166;54.228;37.632;2023-04-08T12:39:45;100179.72;;;13.96;nan
72975;BME280;61166;54.228;37.632;2023-04-08T12:42:12;100171.75;;;14.02;nan
72975;BME280;61166;54.228;37.632;2023-04-08T12:44:39;100174.72;;;14.26;nan
72975;BME280;61166;54.228;37.632;2023-04-08T12:47:06;100168.41;;;14.27;nan
72975;BME280;61166;54.228;37.632;2023-04-08T12:49:32;100159.53;;;14.08;nan
72975;BME280;61166;54.228;37.632;2023-04-08T12:52:14;100162.25;;;14.33;nan
72975;BME280;61166;54.228;37.632;2023-04-08T12:54:40;100153.63;;;14.50;nan
72975;BME280;61166;54.228;37.632;2023-04-08T12:57:07;100163.47;;;14.37;nan
72975;BME280;61166;54.228;37.632;2023-04-08T12:59:33;100165.00;;;14.13;nan
72975;BME280;61166;54.228;37.632;2023-04-08T13:02:00;100159.41;;;14.34;nan
72975;BME280;61166;54.228;37.632;2023-04-08T13:04:27;100156.06;;;14.07;nan
72975;BME280;61166;54.228;37.632;2023-04-08T13:06:53;100163.75;;;14.15;nan
72975;BME280;61166;54.228;37.632;2023-04-08T13:09:20;100161.13;;;14.15;nan
72975;BME280;61166;54.228;37.632;2023-04-08T13:11:46;100161.22;;;13.89;nan
72975;BME280;61166;54.228;37.632;2023-04-08T13:14:13;100160.69;;;13.74;nan
72975;BME280;61166;54.228;37.632;2023-04-08T13:16:39;100154.59;;;13.73;nan
72975;BME280;61166;54.228;37.632;2023-04-08T13:19:06;100163.13;;;13.69;nan
72975;BME280;61166;54.228;37.632;2023-04-08T13:21:32;100162.31;;;13.68;nan
72975;BME280;61166;54.228;37.632;2023-04-08T13:23:59;100156.94;;;13.88;nan
72975;BME280;61166;54.228;37.632;2023-04-08T13:26:26;100154.00;;;14.16;nan
72975;BME280;61166;54.228;37.632;2023-04-08T13:28:52;100143.84;;;14.13;nan
72975;BME280;61166;54.228;37.632;2023-04-08T13:31:23;100139.34;;;14.13;nan
72975;BME280;61166;54.228;37.632;2023-04-08T13:33:50;100140.47;;;14.37;nan
72975;BME280;61166;54.228;37.632;2023-04-08T13:36:16;100133.03;;;14.52;nan
72975;BME280;61166;54.228;37.632;2023-04-08T13:38:43;100145.81;;;14.62;nan
72975;BME280;61166;54.228;37.632;2023-04-08T13:41:10;100137.47;;;14.59;nan
72975;BME280;61166;54.228;37.632;2023-04-08T13:43:36;100150.44;;;14.42;nan
72975;BME280;61166;54.228;37.632;2023-04-08T13:46:03;100147.44;;;14.25;nan
72975;BME280;61166;54.228;37.632;2023-04-08T13:48:29;100137.16;;;14.04;nan
72975;BME280;61166;54.228;37.632;2023-04-08T13:50:56;100136.56;;;14.02;nan
72975;BME280;61166;54.228;37.632;2023-04-08T13:53:23;100139.47;;;13.87;nan
72975;BME280;61166;54.228;37.632;2023-04-08T13:55:49;100141.34;;;13.80;nan
72975;BME280;61166;54.228;37.632;2023-04-08T13:58:16;100139.97;;;13.58;nan
72975;BME280;61166;54.228;37.632;2023-04-08T14:00:49;100129.22;;;13.52;nan
72975;BME280;61166;54.228;37.632;2023-04-08T14:03:16;100127.13;;;13.68;nan
72975;BME280;61166;54.228;37.632;2023-04-08T14:05:42;100124.53;;;13.54;nan
72975;BME280;61166;54.228;37.632;2023-04-08T14:08:09;100123.94;;;13.39;nan
72975;BME280;61166;54.228;37.632;2023-04-08T14:10:35;100132.69;;;13.33;nan
72975;BME280;61166;54.228;37.632;2023-04-08T14:13:02;100135.97;;;13.29;nan
72975;BME280;61166;54.228;37.632;2023-04-08T14:15:28;100124.59;;;13.15;nan
72975;BME280;61166;54.228;37.632;2023-04-08T14:17:55;100135.16;;;13.08;nan
72975;BME280;61166;54.228;37.632;2023-04-08T14:20:22;100134.97;;;12.97;nan
72975;BME280;61166;54.228;37.632;2023-04-08T14:22:48;100135.34;;;12.94;nan
72975;BME280;61166;54.228;37.632;2023-04-08T14:25:17;100143.47;;;12.85;nan
72975;BME280;61166;54.228;37.632;2023-04-08T14:27:44;100128.44;;;12.73;nan
72975;BME280;61166;54.228;37.632;2023-04-08T14:30:23;100135.53;;;12.72;nan
72975;BME280;61166;54.228;37.632;2023-04-08T14:32:49;100129.47;;;12.59;nan
72975;BME280;61166;54.228;37.632;2023-04-08T14:35:16;100124.81;;;12.67;nan
72975;BME280;61166;54.228;37.632;2023-04-08T14:37:42;100123.38;;;12.58;nan
72975;BME280;61166;54.228;37.632;2023-04-08T14:40:09;100129.84;;;12.49;nan
72975;BME280;61166;54.228;37.632;2023-04-08T14:42:36;100130.25;;;12.46;nan
72975;BME280;61166;54.228;37.632;2023-04-08T14:45:02;100132.28;;;12.44;nan
72975;BME280;61166;54.228;37.632;2023-04-08T14:47:29;100133.47;;;12.35;nan
72975;BME280;61166;54.228;37.632;2023-04-08T14:49:55;100134.69;;;12.32;nan
72975;BME280;61166;54.228;37.632;2023-04-08T14:52:22;100126.56;;;12.34;nan
72975;BME280;61166;54.228;37.632;2023-04-08T14:54:48;100132.63;;;12.21;nan
72975;BME280;61166;54.228;37.632;2023-04-08T14:57:15;100126.13;;;12.10;nan
72975;BME280;61166;54.228;37.632;2023-04-08T14:59:41;100131.78;;;12.07;nan
72975;BME280;61166;54.228;37.632;2023-04-08T15:02:08;100135.84;;;12.03;nan
72975;BME280;61166;54.228;37.632;2023-04-08T15:04:35;100141.09;;;12.03;nan
72975;BME280;61166;54.228;37.632;2023-04-08T15:07:01;100133.16;;;11.97;nan
72975;BME280;61166;54.228;37.632;2023-04-08T15:09:28;100132.13;;;11.91;nan
72975;BME280;61166;54.228;37.632;2023-04-08T15:11:55;100133.91;;;11.84;nan
72975;BME280;61166;54.228;37.632;2023-04-08T15:14:21;100138.34;;;11.77;nan
72975;BME280;61166;54.228;37.632;2023-04-08T15:16:48;100134.69;;;11.78;nan
72975;BME280;61166;54.228;37.632;2023-04-08T15:19:14;100135.84;;;11.69;nan
72975;BME280;61166;54.228;37.632;2023-04-08T15:21:41;100141.31;;;11.67;nan
72975;BME280;61166;54.228;37.632;2023-04-08T15:24:07;100150.59;;;11.63;nan
72975;BME280;61166;54.228;37.632;2023-04-08T15:26:34;100127.69;;;11.64;nan
72975;BME280;61166;54.228;37.632;2023-04-08T15:29:00;100135.75;;;11.49;nan
72975;BME280;61166;54.228;37.632;2023-04-08T15:31:27;100131.84;;;11.38;nan
72975;BME280;61166;54.228;37.632;2023-04-08T15:33:53;100143.75;;;11.34;nan
72975;BME280;61166;54.228;37.632;2023-04-08T15:36:20;100135.44;;;11.31;nan
72975;BME280;61166;54.228;37.632;2023-04-08T15:38:47;100139.16;;;11.15;nan
72975;BME280;61166;54.228;37.632;2023-04-08T15:41:15;100139.69;;;11.04;nan
72975;BME280;61166;54.228;37.632;2023-04-08T15:43:41;100141.31;;;11.05;nan
72975;BME280;61166;54.228;37.632;2023-04-08T15:46:08;100142.38;;;11.10;nan
72975;BME280;61166;54.228;37.632;2023-04-08T15:48:34;100140.94;;;11.08;nan
72975;BME280;61166;54.228;37.632;2023-04-08T15:51:07;100137.63;;;10.99;nan
72975;BME280;61166;54.228;37.632;2023-04-08T15:53:34;100143.63;;;10.86;nan
72975;BME280;61166;54.228;37.632;2023-04-08T15:56:01;100135.09;;;10.84;nan
72975;BME280;61166;54.228;37.632;2023-04-08T15:58:27;100137.28;;;10.81;nan
72975;BME280;61166;54.228;37.632;2023-04-08T16:00:54;100142.69;;;10.73;nan
72975;BME280;61166;54.228;37.632;2023-04-08T16:03:20;100143.50;;;10.73;nan
72975;BME280;61166;54.228;37.632;2023-04-08T16:05:47;100150.69;;;10.65;nan
72975;BME280;61166;54.228;37.632;2023-04-08T16:08:14;100151.44;;;10.58;nan
72975;BME280;61166;54.228;37.632;2023-04-08T16:10:40;100158.91;;;10.55;nan
72975;BME280;61166;54.228;37.632;2023-04-08T16:13:07;100154.81;;;10.52;nan
72975;BME280;61166;54.228;37.632;2023-04-08T16:15:34;100160.63;;;10.48;nan
72975;BME280;61166;54.228;37.632;2023-04-08T16:18:03;100157.06;;;10.55;nan
72975;BME280;61166;54.228;37.632;2023-04-08T16:20:30;100154.75;;;10.46;nan
72975;BME280;61166;54.228;37.632;2023-04-08T16:22:56;100156.56;;;10.45;nan
72975;BME280;61166;54.228;37.632;2023-04-08T16:25:23;100160.38;;;10.43;nan
72975;BME280;61166;54.228;37.632;2023-04-08T16:27:51;100163.41;;;10.40;nan
72975;BME280;61166;54.228;37.632;2023-04-08T16:30:18;100169.59;;;10.32;nan
72975;BME280;61166;54.228;37.632;2023-04-08T16:32:45;100165.25;;;10.24;nan
72975;BME280;61166;54.228;37.632;2023-04-08T16:35:11;100164.44;;;10.24;nan
72975;BME280;61166;54.228;37.632;2023-04-08T16:37:38;100174.84;;;10.17;nan
72975;BME280;61166;54.228;37.632;2023-04-08T16:40:05;100178.84;;;10.13;nan
72975;BME280;61166;54.228;37.632;2023-04-08T16:42:32;100170.16;;;10.28;nan
72975;BME280;61166;54.228;37.632;2023-04-08T16:44:58;100174.78;;;10.11;nan
72975;BME280;61166;54.228;37.632;2023-04-08T16:47:25;100173.44;;;10.00;nan
72975;BME280;61166;54.228;37.632;2023-04-08T16:49:51;100189.91;;;9.94;nan
72975;BME280;61166;54.228;37.632;2023-04-08T16:52:18;100187.38;;;9.86;nan
72975;BME280;61166;54.228;37.632;2023-04-08T16:54:45;100184.31;;;9.97;nan
72975;BME280;61166;54.228;37.632;2023-04-08T16:57:11;100189.38;;;9.84;nan
72975;BME280;61166;54.228;37.632;2023-04-08T16:59:38;100201.09;;;9.81;nan
72975;BME280;61166;54.228;37.632;2023-04-08T17:02:04;100196.84;;;9.80;nan
72975;BME280;61166;54.228;37.632;2023-04-08T17:04:31;100192.94;;;9.76;nan
72975;BME280;61166;54.228;37.632;2023-04-08T17:11:50;100208.84;;;9.45;nan
72975;BME280;61166;54.228;37.632;2023-04-08T17:14:17;100213.00;;;9.40;nan
72975;BME280;61166;54.228;37.632;2023-04-08T17:16:43;100211.72;;;9.36;nan
72975;BME280;61166;54.228;37.632;2023-04-08T17:26:32;100207.00;;;9.16;nan